sensor_id;sensor_type;location;lat;lon;timestamp;temperature;humidity
6964;DHT22;3522;50.856;7.278;2022-08-20T00:02:22;19.60;99.90
6964;DHT22;3522;50.856;7.278;2022-08-20T00:04:49;19.60;99.90
6964;DHT22;3522;50.856;7.278;2022-08-20T00:07:16;19.60;99.90
6964;DHT22;3522;50.856;7.278;2022-08-20T00:09:43;19.70;99.90
6964;DHT22;3522;50.856;7.278;2022-08-20T00:12:10;19.70;99.90
6964;DHT22;3522;50.856;7.278;2022-08-20T00:14:39;19.70;99.90
6964;DHT22;3522;50.856;7.278;2022-08-20T00:17:05;19.70;99.90
6964;DHT22;3522;50.856;7.278;2022-08-20T00:19:32;19.60;99.90
6964;DHT22;3522;50.856;7.278;2022-08-20T00:21:59;19.60;99.90
6964;DHT22;3522;50.856;7.278;2022-08-20T00:24:25;19.60;99.90
6964;DHT22;3522;50.856;7.278;2022-08-20T00:26:52;19.50;99.90
6964;DHT22;3522;50.856;7.278;2022-08-20T00:29:18;19.40;99.90
6964;DHT22;3522;50.856;7.278;2022-08-20T00:31:46;19.40;99.90
6964;DHT22;3522;50.856;7.278;2022-08-20T00:34:13;19.40;99.90
6964;DHT22;3522;50.856;7.278;2022-08-20T00:36:39;19.40;99.90
6964;DHT22;3522;50.856;7.278;2022-08-20T00:39:06;19.40;99.90
6964;DHT22;3522;50.856;7.278;2022-08-20T00:41:32;19.30;99.90
6964;DHT22;3522;50.856;7.278;2022-08-20T00:44:04;19.40;99.90
6964;DHT22;3522;50.856;7.278;2022-08-20T00:46:31;19.40;99.90
6964;DHT22;3522;50.856;7.278;2022-08-20T00:48:59;19.40;99.90
6964;DHT22;3522;50.856;7.278;2022-08-20T00:51:29;19.40;99.90
6964;DHT22;3522;50.856;7.278;2022-08-20T00:54:00;19.40;99.90
6964;DHT22;3522;50.856;7.278;2022-08-20T00:56:28;19.40;99.90
6964;DHT22;3522;50.856;7.278;2022-08-20T00:58:55;19.50;99.90
6964;DHT22;3522;50.856;7.278;2022-08-20T01:01:22;19.50;99.90
6964;DHT22;3522;50.856;7.278;2022-08-20T01:03:49;19.50;99.90
6964;DHT22;3522;50.856;7.278;2022-08-20T01:06:21;19.50;99.90
6964;DHT22;3522;50.856;7.278;2022-08-20T01:08:47;19.60;99.90
6964;DHT22;3522;50.856;7.278;2022-08-20T01:11:14;19.60;99.90
6964;DHT22;3522;50.856;7.278;2022-08-20T01:13:42;19.60;99.90
6964;DHT22;3522;50.856;7.278;2022-08-20T01:16:19;19.60;99.90
6964;DHT22;3522;50.856;7.278;2022-08-20T01:18:47;19.60;99.90
6964;DHT22;3522;50.856;7.278;2022-08-20T01:21:14;19.60;99.90
6964;DHT22;3522;50.856;7.278;2022-08-20T01:23:44;19.60;99.90
6964;DHT22;3522;50.856;7.278;2022-08-20T01:26:14;19.50;99.90
6964;DHT22;3522;50.856;7.278;2022-08-20T01:28:44;19.50;99.90
6964;DHT22;3522;50.856;7.278;2022-08-20T01:31:12;19.40;99.90
6964;DHT22;3522;50.856;7.278;2022-08-20T01:33:39;19.40;99.90
6964;DHT22;3522;50.856;7.278;2022-08-20T01:36:06;19.40;99.90
6964;DHT22;3522;50.856;7.278;2022-08-20T01:38:34;19.30;99.90
6964;DHT22;3522;50.856;7.278;2022-08-20T01:41:23;19.30;99.90
6964;DHT22;3522;50.856;7.278;2022-08-20T01:43:54;19.30;99.90
6964;DHT22;3522;50.856;7.278;2022-08-20T01:46:22;19.30;99.90
6964;DHT22;3522;50.856;7.278;2022-08-20T01:48:49;19.30;99.90
6964;DHT22;3522;50.856;7.278;2022-08-20T01:51:18;19.20;99.90
6964;DHT22;3522;50.856;7.278;2022-08-20T01:53:47;19.20;99.90
6964;DHT22;3522;50.856;7.278;2022-08-20T01:56:15;19.20;99.90
6964;DHT22;3522;50.856;7.278;2022-08-20T01:58:45;19.20;99.90
6964;DHT22;3522;50.856;7.278;2022-08-20T02:01:18;19.20;99.90
6964;DHT22;3522;50.856;7.278;2022-08-20T02:03:44;19.20;99.90
6964;DHT22;3522;50.856;7.278;2022-08-20T02:06:11;19.20;99.90
6964;DHT22;3522;50.856;7.278;2022-08-20T02:08:38;19.20;99.90
6964;DHT22;3522;50.856;7.278;2022-08-20T02:11:04;19.10;99.90
6964;DHT22;3522;50.856;7.278;2022-08-20T02:13:31;19.10;99.90
6964;DHT22;3522;50.856;7.278;2022-08-20T02:15:59;19.00;99.90
6964;DHT22;3522;50.856;7.278;2022-08-20T02:18:25;19.00;99.90
6964;DHT22;3522;50.856;7.278;2022-08-20T02:20:52;19.00;99.90
6964;DHT22;3522;50.856;7.278;2022-08-20T02:23:18;18.90;99.90
6964;DHT22;3522;50.856;7.278;2022-08-20T02:25:45;18.90;99.90
6964;DHT22;3522;50.856;7.278;2022-08-20T02:28:14;18.90;99.90
6964;DHT22;3522;50.856;7.278;2022-08-20T02:30:41;18.90;99.90
6964;DHT22;3522;50.856;7.278;2022-08-20T02:33:10;19.00;99.90
6964;DHT22;3522;50.856;7.278;2022-08-20T02:35:38;19.00;99.90
6964;DHT22;3522;50.856;7.278;2022-08-20T02:38:05;19.00;99.90
6964;DHT22;3522;50.856;7.278;2022-08-20T02:40:32;18.90;99.90
6964;DHT22;3522;50.856;7.278;2022-08-20T02:42:59;18.80;99.90
6964;DHT22;3522;50.856;7.278;2022-08-20T02:45:26;18.80;99.90
6964;DHT22;3522;50.856;7.278;2022-08-20T02:47:52;18.70;99.90
6964;DHT22;3522;50.856;7.278;2022-08-20T02:50:23;18.70;99.90
6964;DHT22;3522;50.856;7.278;2022-08-20T02:52:50;18.70;99.90
6964;DHT22;3522;50.856;7.278;2022-08-20T02:55:16;18.70;99.90
6964;DHT22;3522;50.856;7.278;2022-08-20T02:57:43;18.70;99.90
6964;DHT22;3522;50.856;7.278;2022-08-20T03:00:11;18.60;99.90
6964;DHT22;3522;50.856;7.278;2022-08-20T03:02:38;18.60;99.90
6964;DHT22;3522;50.856;7.278;2022-08-20T03:05:05;18.50;99.90
6964;DHT22;3522;50.856;7.278;2022-08-20T03:07:40;18.50;99.90
6964;DHT22;3522;50.856;7.278;2022-08-20T03:10:06;18.50;99.90
6964;DHT22;3522;50.856;7.278;2022-08-20T03:12:33;18.50;99.90
6964;DHT22;3522;50.856;7.278;2022-08-20T03:15:00;18.60;99.90
6964;DHT22;3522;50.856;7.278;2022-08-20T03:17:26;18.60;99.90
6964;DHT22;3522;50.856;7.278;2022-08-20T03:19:53;18.60;99.90
6964;DHT22;3522;50.856;7.278;2022-08-20T03:22:19;18.60;99.90
6964;DHT22;3522;50.856;7.278;2022-08-20T03:24:47;18.60;99.90
6964;DHT22;3522;50.856;7.278;2022-08-20T03:27:14;18.60;99.90
6964;DHT22;3522;50.856;7.278;2022-08-20T03:29:40;18.60;99.90
6964;DHT22;3522;50.856;7.278;2022-08-20T03:32:07;18.60;99.90
6964;DHT22;3522;50.856;7.278;2022-08-20T03:34:33;18.60;99.90
6964;DHT22;3522;50.856;7.278;2022-08-20T03:37:00;18.60;99.90
6964;DHT22;3522;50.856;7.278;2022-08-20T03:39:27;18.60;99.90
6964;DHT22;3522;50.856;7.278;2022-08-20T03:41:55;18.70;99.90
6964;DHT22;3522;50.856;7.278;2022-08-20T03:44:21;18.70;99.90
6964;DHT22;3522;50.856;7.278;2022-08-20T03:46:48;18.70;99.90
6964;DHT22;3522;50.856;7.278;2022-08-20T03:49:14;18.70;99.90
6964;DHT22;3522;50.856;7.278;2022-08-20T03:51:41;18.70;99.90
6964;DHT22;3522;50.856;7.278;2022-08-20T03:54:07;18.70;99.90
6964;DHT22;3522;50.856;7.278;2022-08-20T03:56:34;18.70;99.90
6964;DHT22;3522;50.856;7.278;2022-08-20T03:59:02;18.60;99.90
6964;DHT22;3522;50.856;7.278;2022-08-20T04:01:28;18.60;99.90
6964;DHT22;3522;50.856;7.278;2022-08-20T04:03:55;18.60;99.90
6964;DHT22;3522;50.856;7.278;2022-08-20T04:06:23;18.70;99.90
6964;DHT22;3522;50.856;7.278;2022-08-20T04:08:49;18.70;99.90
6964;DHT22;3522;50.856;7.278;2022-08-20T04:11:17;18.70;99.90
6964;DHT22;3522;50.856;7.278;2022-08-20T04:13:44;18.70;99.90
6964;DHT22;3522;50.856;7.278;2022-08-20T04:16:12;18.80;99.90
6964;DHT22;3522;50.856;7.278;2022-08-20T04:18:38;18.70;99.90
6964;DHT22;3522;50.856;7.278;2022-08-20T04:21:05;18.80;99.90
6964;DHT22;3522;50.856;7.278;2022-08-20T04:23:31;18.80;99.90
6964;DHT22;3522;50.856;7.278;2022-08-20T04:25:58;18.80;99.90
6964;DHT22;3522;50.856;7.278;2022-08-20T04:28:26;18.80;99.90
6964;DHT22;3522;50.856;7.278;2022-08-20T04:30:53;18.80;99.90
6964;DHT22;3522;50.856;7.278;2022-08-20T04:33:21;18.80;99.90
6964;DHT22;3522;50.856;7.278;2022-08-20T04:35:48;18.80;99.90
6964;DHT22;3522;50.856;7.278;2022-08-20T04:38:15;18.80;99.90
6964;DHT22;3522;50.856;7.278;2022-08-20T04:40:43;18.80;99.90
6964;DHT22;3522;50.856;7.278;2022-08-20T04:43:18;18.90;99.90
6964;DHT22;3522;50.856;7.278;2022-08-20T04:45:47;18.90;99.90
6964;DHT22;3522;50.856;7.278;2022-08-20T04:48:14;18.90;99.90
6964;DHT22;3522;50.856;7.278;2022-08-20T04:50:42;18.80;99.90
6964;DHT22;3522;50.856;7.278;2022-08-20T04:53:12;18.80;99.90
6964;DHT22;3522;50.856;7.278;2022-08-20T04:55:39;18.90;99.90
6964;DHT22;3522;50.856;7.278;2022-08-20T04:58:08;18.90;99.90
6964;DHT22;3522;50.856;7.278;2022-08-20T05:00:35;18.90;99.90
6964;DHT22;3522;50.856;7.278;2022-08-20T05:03:02;18.90;99.90
6964;DHT22;3522;50.856;7.278;2022-08-20T05:05:28;19.00;99.90
6964;DHT22;3522;50.856;7.278;2022-08-20T05:07:56;19.00;99.90
6964;DHT22;3522;50.856;7.278;2022-08-20T05:10:23;19.00;99.90
6964;DHT22;3522;50.856;7.278;2022-08-20T05:12:50;19.00;99.90
6964;DHT22;3522;50.856;7.278;2022-08-20T05:15:17;19.00;99.90
6964;DHT22;3522;50.856;7.278;2022-08-20T05:17:44;19.00;99.90
6964;DHT22;3522;50.856;7.278;2022-08-20T05:20:12;19.00;99.90
6964;DHT22;3522;50.856;7.278;2022-08-20T05:22:38;19.00;99.90
6964;DHT22;3522;50.856;7.278;2022-08-20T05:25:07;19.00;99.90
6964;DHT22;3522;50.856;7.278;2022-08-20T05:27:33;19.00;99.90
6964;DHT22;3522;50.856;7.278;2022-08-20T05:30:00;19.00;99.90
6964;DHT22;3522;50.856;7.278;2022-08-20T05:32:31;19.00;99.90
6964;DHT22;3522;50.856;7.278;2022-08-20T05:34:59;19.00;99.90
6964;DHT22;3522;50.856;7.278;2022-08-20T05:37:26;19.00;99.90
6964;DHT22;3522;50.856;7.278;2022-08-20T05:39:54;18.90;99.90
6964;DHT22;3522;50.856;7.278;2022-08-20T05:42:22;18.90;99.90
6964;DHT22;3522;50.856;7.278;2022-08-20T05:44:48;18.90;99.90
6964;DHT22;3522;50.856;7.278;2022-08-20T05:47:15;18.80;99.90
6964;DHT22;3522;50.856;7.278;2022-08-20T05:49:42;18.80;99.90
6964;DHT22;3522;50.856;7.278;2022-08-20T05:52:10;18.80;99.90
6964;DHT22;3522;50.856;7.278;2022-08-20T05:54:37;18.70;99.90
6964;DHT22;3522;50.856;7.278;2022-08-20T05:57:04;18.70;99.90
6964;DHT22;3522;50.856;7.278;2022-08-20T05:59:32;18.60;99.90
6964;DHT22;3522;50.856;7.278;2022-08-20T06:02:01;18.50;99.90
6964;DHT22;3522;50.856;7.278;2022-08-20T06:04:47;18.50;99.90
6964;DHT22;3522;50.856;7.278;2022-08-20T06:07:13;18.30;99.90
6964;DHT22;3522;50.856;7.278;2022-08-20T06:09:40;18.30;99.90
6964;DHT22;3522;50.856;7.278;2022-08-20T06:12:07;18.20;99.90
6964;DHT22;3522;50.856;7.278;2022-08-20T06:14:35;18.20;99.90
6964;DHT22;3522;50.856;7.278;2022-08-20T06:17:02;18.30;99.90
6964;DHT22;3522;50.856;7.278;2022-08-20T06:19:29;18.30;99.90
6964;DHT22;3522;50.856;7.278;2022-08-20T06:21:56;18.40;99.90
6964;DHT22;3522;50.856;7.278;2022-08-20T06:24:23;18.50;99.90
6964;DHT22;3522;50.856;7.278;2022-08-20T06:26:53;18.50;99.90
6964;DHT22;3522;50.856;7.278;2022-08-20T06:29:20;18.50;99.90
6964;DHT22;3522;50.856;7.278;2022-08-20T06:31:48;18.50;99.90
6964;DHT22;3522;50.856;7.278;2022-08-20T06:34:14;18.60;99.90
6964;DHT22;3522;50.856;7.278;2022-08-20T06:36:42;18.60;99.90
6964;DHT22;3522;50.856;7.278;2022-08-20T06:39:11;18.60;99.90
6964;DHT22;3522;50.856;7.278;2022-08-20T06:41:37;18.60;99.90
6964;DHT22;3522;50.856;7.278;2022-08-20T06:44:04;18.60;99.90
6964;DHT22;3522;50.856;7.278;2022-08-20T06:46:31;18.60;99.90
6964;DHT22;3522;50.856;7.278;2022-08-20T06:48:59;18.60;99.90
6964;DHT22;3522;50.856;7.278;2022-08-20T06:51:26;18.60;99.90
6964;DHT22;3522;50.856;7.278;2022-08-20T06:53:53;18.70;99.90
6964;DHT22;3522;50.856;7.278;2022-08-20T06:56:20;18.70;99.90
6964;DHT22;3522;50.856;7.278;2022-08-20T06:58:46;18.70;99.90
6964;DHT22;3522;50.856;7.278;2022-08-20T07:01:13;18.70;99.90
6964;DHT22;3522;50.856;7.278;2022-08-20T07:03:45;18.70;99.90
6964;DHT22;3522;50.856;7.278;2022-08-20T07:06:13;18.70;99.90
6964;DHT22;3522;50.856;7.278;2022-08-20T07:08:40;18.60;99.90
6964;DHT22;3522;50.856;7.278;2022-08-20T07:11:07;18.70;99.90
6964;DHT22;3522;50.856;7.278;2022-08-20T07:13:34;18.60;99.90
6964;DHT22;3522;50.856;7.278;2022-08-20T07:16:02;18.50;99.90
6964;DHT22;3522;50.856;7.278;2022-08-20T07:18:28;18.40;99.90
6964;DHT22;3522;50.856;7.278;2022-08-20T07:20:55;18.40;99.90
6964;DHT22;3522;50.856;7.278;2022-08-20T07:23:23;18.40;99.90
6964;DHT22;3522;50.856;7.278;2022-08-20T07:25:50;18.30;99.90
6964;DHT22;3522;50.856;7.278;2022-08-20T07:28:18;18.30;99.90
6964;DHT22;3522;50.856;7.278;2022-08-20T07:30:45;18.30;99.90
6964;DHT22;3522;50.856;7.278;2022-08-20T07:33:29;18.40;99.90
6964;DHT22;3522;50.856;7.278;2022-08-20T07:35:56;18.40;99.90
6964;DHT22;3522;50.856;7.278;2022-08-20T07:38:25;18.50;99.90
6964;DHT22;3522;50.856;7.278;2022-08-20T07:40:54;18.50;99.90
6964;DHT22;3522;50.856;7.278;2022-08-20T07:43:20;18.60;99.90
6964;DHT22;3522;50.856;7.278;2022-08-20T07:45:48;18.50;99.90
6964;DHT22;3522;50.856;7.278;2022-08-20T07:48:15;18.50;99.90
6964;DHT22;3522;50.856;7.278;2022-08-20T07:50:42;18.50;99.90
6964;DHT22;3522;50.856;7.278;2022-08-20T07:53:09;18.50;99.90
6964;DHT22;3522;50.856;7.278;2022-08-20T07:55:38;18.40;99.90
6964;DHT22;3522;50.856;7.278;2022-08-20T07:58:07;18.40;99.90
6964;DHT22;3522;50.856;7.278;2022-08-20T08:00:34;18.50;99.90
6964;DHT22;3522;50.856;7.278;2022-08-20T08:03:00;18.50;99.90
6964;DHT22;3522;50.856;7.278;2022-08-20T08:05:28;18.50;99.90
6964;DHT22;3522;50.856;7.278;2022-08-20T08:07:55;18.50;99.90
6964;DHT22;3522;50.856;7.278;2022-08-20T08:10:23;18.60;99.90
6964;DHT22;3522;50.856;7.278;2022-08-20T08:12:52;18.60;99.90
6964;DHT22;3522;50.856;7.278;2022-08-20T08:15:21;18.80;99.90
6964;DHT22;3522;50.856;7.278;2022-08-20T08:17:48;18.90;99.90
6964;DHT22;3522;50.856;7.278;2022-08-20T08:20:16;19.10;99.90
6964;DHT22;3522;50.856;7.278;2022-08-20T08:22:44;19.20;99.90
6964;DHT22;3522;50.856;7.278;2022-08-20T08:25:11;19.40;99.90
6964;DHT22;3522;50.856;7.278;2022-08-20T08:27:38;19.60;99.90
6964;DHT22;3522;50.856;7.278;2022-08-20T08:30:06;20.10;99.90
6964;DHT22;3522;50.856;7.278;2022-08-20T08:32:33;20.50;99.90
6964;DHT22;3522;50.856;7.278;2022-08-20T08:35:02;20.90;99.90
6964;DHT22;3522;50.856;7.278;2022-08-20T08:37:29;21.30;99.90
6964;DHT22;3522;50.856;7.278;2022-08-20T08:39:56;21.60;99.90
6964;DHT22;3522;50.856;7.278;2022-08-20T08:42:23;21.70;99.90
6964;DHT22;3522;50.856;7.278;2022-08-20T08:44:51;21.60;99.90
6964;DHT22;3522;50.856;7.278;2022-08-20T08:47:20;21.50;99.90
6964;DHT22;3522;50.856;7.278;2022-08-20T08:49:49;21.50;99.90
6964;DHT22;3522;50.856;7.278;2022-08-20T08:52:16;21.40;99.90
6964;DHT22;3522;50.856;7.278;2022-08-20T08:54:46;21.20;99.90
6964;DHT22;3522;50.856;7.278;2022-08-20T08:57:13;21.00;99.90
6964;DHT22;3522;50.856;7.278;2022-08-20T08:59:39;20.70;99.90
6964;DHT22;3522;50.856;7.278;2022-08-20T09:02:06;20.70;99.90
6964;DHT22;3522;50.856;7.278;2022-08-20T09:04:35;20.70;99.90
6964;DHT22;3522;50.856;7.278;2022-08-20T09:07:02;20.80;99.90
6964;DHT22;3522;50.856;7.278;2022-08-20T09:09:32;20.80;99.90
6964;DHT22;3522;50.856;7.278;2022-08-20T09:12:01;20.80;99.90
6964;DHT22;3522;50.856;7.278;2022-08-20T09:14:28;20.90;99.90
6964;DHT22;3522;50.856;7.278;2022-08-20T09:16:55;21.00;99.90
6964;DHT22;3522;50.856;7.278;2022-08-20T09:19:21;21.20;99.90
6964;DHT22;3522;50.856;7.278;2022-08-20T09:21:49;21.40;99.90
6964;DHT22;3522;50.856;7.278;2022-08-20T09:24:16;21.30;99.90
6964;DHT22;3522;50.856;7.278;2022-08-20T09:26:43;21.20;99.90
6964;DHT22;3522;50.856;7.278;2022-08-20T09:29:10;21.20;99.90
6964;DHT22;3522;50.856;7.278;2022-08-20T09:31:36;21.50;99.90
6964;DHT22;3522;50.856;7.278;2022-08-20T09:34:03;22.10;99.90
6964;DHT22;3522;50.856;7.278;2022-08-20T09:36:30;22.70;99.90
6964;DHT22;3522;50.856;7.278;2022-08-20T09:38:58;23.40;99.90
6964;DHT22;3522;50.856;7.278;2022-08-20T09:41:25;23.80;99.90
6964;DHT22;3522;50.856;7.278;2022-08-20T09:43:51;23.80;99.90
6964;DHT22;3522;50.856;7.278;2022-08-20T09:46:18;23.70;99.90
6964;DHT22;3522;50.856;7.278;2022-08-20T09:48:45;23.40;99.90
6964;DHT22;3522;50.856;7.278;2022-08-20T09:51:12;22.80;99.90
6964;DHT22;3522;50.856;7.278;2022-08-20T09:53:38;22.30;99.90
6964;DHT22;3522;50.856;7.278;2022-08-20T09:56:06;21.80;99.90
6964;DHT22;3522;50.856;7.278;2022-08-20T09:58:34;21.40;99.90
6964;DHT22;3522;50.856;7.278;2022-08-20T10:01:04;21.40;99.90
6964;DHT22;3522;50.856;7.278;2022-08-20T10:03:31;21.90;99.90
6964;DHT22;3522;50.856;7.278;2022-08-20T10:05:58;22.50;99.90
6964;DHT22;3522;50.856;7.278;2022-08-20T10:08:24;22.80;99.90
6964;DHT22;3522;50.856;7.278;2022-08-20T10:10:51;22.70;99.90
6964;DHT22;3522;50.856;7.278;2022-08-20T10:13:19;22.90;99.90
6964;DHT22;3522;50.856;7.278;2022-08-20T10:15:45;23.20;99.90
6964;DHT22;3522;50.856;7.278;2022-08-20T10:18:12;23.40;99.90
6964;DHT22;3522;50.856;7.278;2022-08-20T10:20:39;23.60;99.90
6964;DHT22;3522;50.856;7.278;2022-08-20T10:23:05;23.50;99.90
6964;DHT22;3522;50.856;7.278;2022-08-20T10:25:32;23.30;99.90
6964;DHT22;3522;50.856;7.278;2022-08-20T10:27:59;23.00;99.90
6964;DHT22;3522;50.856;7.278;2022-08-20T10:30:27;23.00;99.90
6964;DHT22;3522;50.856;7.278;2022-08-20T10:32:53;22.90;99.90
6964;DHT22;3522;50.856;7.278;2022-08-20T10:35:20;23.10;99.90
6964;DHT22;3522;50.856;7.278;2022-08-20T10:37:47;23.60;99.90
6964;DHT22;3522;50.856;7.278;2022-08-20T10:40:13;23.70;99.90
6964;DHT22;3522;50.856;7.278;2022-08-20T10:42:40;23.60;99.90
6964;DHT22;3522;50.856;7.278;2022-08-20T10:45:07;23.70;99.90
6964;DHT22;3522;50.856;7.278;2022-08-20T10:47:36;23.80;99.90
6964;DHT22;3522;50.856;7.278;2022-08-20T10:50:03;23.80;99.90
6964;DHT22;3522;50.856;7.278;2022-08-20T10:52:30;23.90;99.90
6964;DHT22;3522;50.856;7.278;2022-08-20T10:54:56;23.70;99.90
6964;DHT22;3522;50.856;7.278;2022-08-20T10:57:24;23.80;99.90
6964;DHT22;3522;50.856;7.278;2022-08-20T10:59:52;24.10;99.90
6964;DHT22;3522;50.856;7.278;2022-08-20T11:02:19;24.20;99.90
6964;DHT22;3522;50.856;7.278;2022-08-20T11:04:48;23.80;99.90
6964;DHT22;3522;50.856;7.278;2022-08-20T11:07:15;23.80;99.90
6964;DHT22;3522;50.856;7.278;2022-08-20T11:09:44;23.90;99.90
6964;DHT22;3522;50.856;7.278;2022-08-20T11:12:11;24.00;99.90
6964;DHT22;3522;50.856;7.278;2022-08-20T11:14:38;24.40;99.90
6964;DHT22;3522;50.856;7.278;2022-08-20T11:17:05;24.60;99.90
6964;DHT22;3522;50.856;7.278;2022-08-20T11:19:32;24.60;99.90
6964;DHT22;3522;50.856;7.278;2022-08-20T11:22:00;24.20;99.90
6964;DHT22;3522;50.856;7.278;2022-08-20T11:24:26;23.60;99.90
6964;DHT22;3522;50.856;7.278;2022-08-20T11:26:53;23.30;99.90
6964;DHT22;3522;50.856;7.278;2022-08-20T11:29:19;23.30;99.90
6964;DHT22;3522;50.856;7.278;2022-08-20T11:31:49;23.60;99.90
6964;DHT22;3522;50.856;7.278;2022-08-20T11:34:15;23.90;99.90
6964;DHT22;3522;50.856;7.278;2022-08-20T11:36:42;24.00;99.90
6964;DHT22;3522;50.856;7.278;2022-08-20T11:39:10;24.30;99.90
6964;DHT22;3522;50.856;7.278;2022-08-20T11:41:39;24.70;99.90
6964;DHT22;3522;50.856;7.278;2022-08-20T11:44:05;24.60;99.90
6964;DHT22;3522;50.856;7.278;2022-08-20T11:46:32;24.00;99.90
6964;DHT22;3522;50.856;7.278;2022-08-20T11:48:58;23.50;99.90
6964;DHT22;3522;50.856;7.278;2022-08-20T11:51:25;23.30;99.90
6964;DHT22;3522;50.856;7.278;2022-08-20T11:53:52;23.50;99.90
6964;DHT22;3522;50.856;7.278;2022-08-20T11:56:20;23.80;99.90
6964;DHT22;3522;50.856;7.278;2022-08-20T11:58:46;24.00;99.90
6964;DHT22;3522;50.856;7.278;2022-08-20T12:01:13;23.80;99.90
6964;DHT22;3522;50.856;7.278;2022-08-20T12:03:40;23.60;99.90
6964;DHT22;3522;50.856;7.278;2022-08-20T12:06:06;23.30;99.90
6964;DHT22;3522;50.856;7.278;2022-08-20T12:08:33;23.60;99.90
6964;DHT22;3522;50.856;7.278;2022-08-20T12:11:00;23.60;99.90
6964;DHT22;3522;50.856;7.278;2022-08-20T12:13:30;23.50;99.90
6964;DHT22;3522;50.856;7.278;2022-08-20T12:15:57;23.40;99.90
6964;DHT22;3522;50.856;7.278;2022-08-20T12:18:23;23.30;99.90
6964;DHT22;3522;50.856;7.278;2022-08-20T12:20:50;23.50;99.90
6964;DHT22;3522;50.856;7.278;2022-08-20T12:23:17;24.10;99.90
6964;DHT22;3522;50.856;7.278;2022-08-20T12:25:43;24.70;99.90
6964;DHT22;3522;50.856;7.278;2022-08-20T12:28:11;24.80;99.90
6964;DHT22;3522;50.856;7.278;2022-08-20T12:30:39;24.80;99.90
6964;DHT22;3522;50.856;7.278;2022-08-20T12:33:06;24.80;99.90
6964;DHT22;3522;50.856;7.278;2022-08-20T12:35:33;24.70;99.90
6964;DHT22;3522;50.856;7.278;2022-08-20T12:38:01;24.30;99.90
6964;DHT22;3522;50.856;7.278;2022-08-20T12:40:27;23.80;99.90
6964;DHT22;3522;50.856;7.278;2022-08-20T12:42:54;23.80;99.90
6964;DHT22;3522;50.856;7.278;2022-08-20T12:45:21;24.20;99.90
6964;DHT22;3522;50.856;7.278;2022-08-20T12:47:49;24.50;99.90
6964;DHT22;3522;50.856;7.278;2022-08-20T12:50:16;24.90;99.90
6964;DHT22;3522;50.856;7.278;2022-08-20T12:52:43;25.10;99.90
6964;DHT22;3522;50.856;7.278;2022-08-20T12:55:11;25.10;99.90
6964;DHT22;3522;50.856;7.278;2022-08-20T12:57:39;24.80;99.90
6964;DHT22;3522;50.856;7.278;2022-08-20T13:00:08;24.60;99.90
6964;DHT22;3522;50.856;7.278;2022-08-20T13:02:35;24.80;99.90
6964;DHT22;3522;50.856;7.278;2022-08-20T13:05:04;25.00;99.90
6964;DHT22;3522;50.856;7.278;2022-08-20T13:07:31;25.40;99.90
6964;DHT22;3522;50.856;7.278;2022-08-20T13:09:58;25.80;99.90
6964;DHT22;3522;50.856;7.278;2022-08-20T13:12:25;26.10;99.90
6964;DHT22;3522;50.856;7.278;2022-08-20T13:14:52;26.50;99.90
6964;DHT22;3522;50.856;7.278;2022-08-20T13:17:18;26.60;99.90
6964;DHT22;3522;50.856;7.278;2022-08-20T13:19:45;26.60;99.90
6964;DHT22;3522;50.856;7.278;2022-08-20T13:22:13;26.70;99.90
6964;DHT22;3522;50.856;7.278;2022-08-20T13:24:39;26.40;99.90
6964;DHT22;3522;50.856;7.278;2022-08-20T13:27:07;26.10;99.90
6964;DHT22;3522;50.856;7.278;2022-08-20T13:29:34;25.90;99.90
6964;DHT22;3522;50.856;7.278;2022-08-20T13:32:00;25.80;99.90
6964;DHT22;3522;50.856;7.278;2022-08-20T13:34:27;25.80;99.90
6964;DHT22;3522;50.856;7.278;2022-08-20T13:36:54;25.90;99.90
6964;DHT22;3522;50.856;7.278;2022-08-20T13:39:22;26.00;99.90
6964;DHT22;3522;50.856;7.278;2022-08-20T13:41:49;26.20;99.90
6964;DHT22;3522;50.856;7.278;2022-08-20T13:44:15;26.20;99.90
6964;DHT22;3522;50.856;7.278;2022-08-20T13:46:42;25.90;99.90
6964;DHT22;3522;50.856;7.278;2022-08-20T13:49:09;25.50;99.90
6964;DHT22;3522;50.856;7.278;2022-08-20T13:51:35;25.10;99.90
6964;DHT22;3522;50.856;7.278;2022-08-20T13:54:02;24.70;99.90
6964;DHT22;3522;50.856;7.278;2022-08-20T13:56:30;24.40;99.90
6964;DHT22;3522;50.856;7.278;2022-08-20T13:58:56;24.10;99.90
6964;DHT22;3522;50.856;7.278;2022-08-20T14:01:23;24.10;99.90
6964;DHT22;3522;50.856;7.278;2022-08-20T14:03:50;24.40;99.90
6964;DHT22;3522;50.856;7.278;2022-08-20T14:06:16;24.80;99.90
6964;DHT22;3522;50.856;7.278;2022-08-20T14:08:43;25.20;99.90
6964;DHT22;3522;50.856;7.278;2022-08-20T14:11:09;25.50;99.90
6964;DHT22;3522;50.856;7.278;2022-08-20T14:13:37;25.80;99.90
6964;DHT22;3522;50.856;7.278;2022-08-20T14:16:04;26.10;99.90
6964;DHT22;3522;50.856;7.278;2022-08-20T14:18:30;26.30;99.90
6964;DHT22;3522;50.856;7.278;2022-08-20T14:20:57;26.20;99.90
6964;DHT22;3522;50.856;7.278;2022-08-20T14:23:23;25.60;99.90
6964;DHT22;3522;50.856;7.278;2022-08-20T14:25:50;25.30;99.90
6964;DHT22;3522;50.856;7.278;2022-08-20T14:28:17;25.30;99.90
6964;DHT22;3522;50.856;7.278;2022-08-20T14:30:46;25.40;99.90
6964;DHT22;3522;50.856;7.278;2022-08-20T14:33:13;25.30;99.90
6964;DHT22;3522;50.856;7.278;2022-08-20T14:35:40;25.40;99.90
6964;DHT22;3522;50.856;7.278;2022-08-20T14:38:07;25.60;99.90
6964;DHT22;3522;50.856;7.278;2022-08-20T14:40:33;25.80;99.90
6964;DHT22;3522;50.856;7.278;2022-08-20T14:43:00;25.90;98.80
6964;DHT22;3522;50.856;7.278;2022-08-20T14:45:27;25.90;99.90
6964;DHT22;3522;50.856;7.278;2022-08-20T14:47:56;26.00;99.90
6964;DHT22;3522;50.856;7.278;2022-08-20T14:50:23;25.90;99.90
6964;DHT22;3522;50.856;7.278;2022-08-20T14:52:50;25.90;99.90
6964;DHT22;3522;50.856;7.278;2022-08-20T14:55:17;25.90;99.90
6964;DHT22;3522;50.856;7.278;2022-08-20T14:57:44;25.80;98.40
6964;DHT22;3522;50.856;7.278;2022-08-20T15:00:12;25.80;99.10
6964;DHT22;3522;50.856;7.278;2022-08-20T15:02:40;25.80;99.90
6964;DHT22;3522;50.856;7.278;2022-08-20T15:05:08;25.80;98.60
6964;DHT22;3522;50.856;7.278;2022-08-20T15:07:36;25.70;98.50
6964;DHT22;3522;50.856;7.278;2022-08-20T15:10:04;25.50;99.10
6964;DHT22;3522;50.856;7.278;2022-08-20T15:12:30;25.50;99.00
6964;DHT22;3522;50.856;7.278;2022-08-20T15:14:59;25.60;99.50
6964;DHT22;3522;50.856;7.278;2022-08-20T15:17:27;25.50;98.40
6964;DHT22;3522;50.856;7.278;2022-08-20T15:19:54;25.40;98.30
6964;DHT22;3522;50.856;7.278;2022-08-20T15:22:23;25.60;97.40
6964;DHT22;3522;50.856;7.278;2022-08-20T15:24:49;25.60;97.90
6964;DHT22;3522;50.856;7.278;2022-08-20T15:27:17;25.70;97.00
6964;DHT22;3522;50.856;7.278;2022-08-20T15:29:44;25.80;96.40
6964;DHT22;3522;50.856;7.278;2022-08-20T15:32:10;25.70;96.60
6964;DHT22;3522;50.856;7.278;2022-08-20T15:34:38;25.70;96.90
6964;DHT22;3522;50.856;7.278;2022-08-20T15:37:05;25.40;96.30
6964;DHT22;3522;50.856;7.278;2022-08-20T15:39:33;25.30;98.20
6964;DHT22;3522;50.856;7.278;2022-08-20T15:42:00;25.20;98.20
6964;DHT22;3522;50.856;7.278;2022-08-20T15:44:26;25.10;98.20
6964;DHT22;3522;50.856;7.278;2022-08-20T15:46:53;25.10;98.10
6964;DHT22;3522;50.856;7.278;2022-08-20T15:49:19;25.00;98.00
6964;DHT22;3522;50.856;7.278;2022-08-20T15:51:46;24.90;97.70
6964;DHT22;3522;50.856;7.278;2022-08-20T15:54:16;24.90;97.90
6964;DHT22;3522;50.856;7.278;2022-08-20T15:56:48;24.90;98.30
6964;DHT22;3522;50.856;7.278;2022-08-20T15:59:20;24.90;97.70
6964;DHT22;3522;50.856;7.278;2022-08-20T16:01:51;24.80;97.80
6964;DHT22;3522;50.856;7.278;2022-08-20T16:04:24;24.70;97.00